Time;durP1;ratioP1;P1;durP2;ratioP2;P2;SDS_P1;SDS_P2;PMS_P1;PMS_P2;Temp;Humidity;BMP_temperature;BMP_pressure;BME280_temperature;BME280_humidity;BME280_pressure;Samples;Min_cycle;Max_cycle;Signal;HPM_P1;HPM_P2
2022/07/08 00:00:57;;;;;;;;;;;18.60;85.90;;;;;;6163501;23;19949;-96
2022/07/08 00:03:29;;;;;;;;;;;18.50;86.00;;;;;;6187426;23;19939;-96
2022/07/08 00:06:01;;;;;;;;;;;18.40;85.90;;;;;;6214159;23;19931;-96
2022/07/08 00:08:30;;;;;;;;;;;18.20;86.00;;;;;;6115287;23;19944;-96
2022/07/08 00:11:05;;;;;;;;;;;18.10;86.60;;;;;;6188078;23;19939;-96
2022/07/08 00:13:37;;;;;;;;;;;18.10;87.30;;;;;;6214447;23;19985;-96
2022/07/08 00:16:09;;;;;;;;;;;18.20;87.30;;;;;;6214117;23;19948;-96
2022/07/08 00:18:39;;;;;;;;;;;18.30;87.40;;;;;;6188503;23;19942;-96
2022/07/08 00:21:10;;;;;;;;;;;18.30;87.30;;;;;;6188516;23;19939;-96
2022/07/08 00:23:43;;;;;;;;;;;18.30;87.20;;;;;;6164826;23;19938;-97
2022/07/08 00:26:12;;;;;;;;;;;18.30;87.10;;;;;;6163987;23;19924;-96
2022/07/08 00:28:41;;;;;;;;;;;18.30;87.50;;;;;;6188548;23;20007;-96
2022/07/08 00:31:21;;;;;;;;;;;18.30;87.30;;;;;;6214483;23;19935;-96
2022/07/08 00:34:05;;;;;;;;;;;18.30;87.50;;;;;;6214477;23;19929;-96
2022/07/08 00:36:39;;;;;;;;;;;18.40;87.30;;;;;;6211406;23;19960;-96
2022/07/08 00:39:15;;;;;;;;;;;18.40;86.70;;;;;;6165349;23;19962;-96
2022/07/08 00:41:45;;;;;;;;;;;18.40;86.70;;;;;;6187424;23;19927;-96
2022/07/08 00:44:13;;;;;;;;;;;18.40;86.80;;;;;;6188827;23;19945;-96
2022/07/08 00:46:48;;;;;;;;;;;18.30;87.20;;;;;;6190327;23;19936;-96
2022/07/08 00:49:17;;;;;;;;;;;18.30;87.20;;;;;;6163335;23;19986;-96
2022/07/08 00:51:47;;;;;;;;;;;18.30;86.90;;;;;;6213388;23;19966;-96
2022/07/08 00:54:16;;;;;;;;;;;18.10;87.00;;;;;;6187584;23;19951;-96
2022/07/08 00:56:51;;;;;;;;;;;18.10;86.50;;;;;;6214239;23;19986;-96
2022/07/08 00:59:32;;;;;;;;;;;18.20;86.90;;;;;;6188376;23;19949;-96
2022/07/08 01:01:59;;;;;;;;;;;18.30;86.90;;;;;;6187781;23;19974;-96
2022/07/08 01:04:35;;;;;;;;;;;18.30;86.60;;;;;;6213461;23;19934;-96
2022/07/08 01:07:14;;;;;;;;;;;18.30;87.20;;;;;;6202540;23;19923;-96
2022/07/08 01:09:47;;;;;;;;;;;18.30;87.30;;;;;;6213934;23;19926;-96
2022/07/08 01:12:22;;;;;;;;;;;18.30;87.30;;;;;;6188638;23;19943;-96
2022/07/08 01:14:49;;;;;;;;;;;18.30;86.90;;;;;;6188362;23;19922;-96
2022/07/08 01:17:19;;;;;;;;;;;18.30;86.80;;;;;;6188518;23;19965;-96
2022/07/08 01:19:51;;;;;;;;;;;18.20;86.90;;;;;;6180862;23;19972;-96
2022/07/08 01:22:31;;;;;;;;;;;18.30;86.90;;;;;;6164996;23;19927;-96
2022/07/08 01:25:25;;;;;;;;;;;18.30;86.90;;;;;;6133458;23;19981;-96
2022/07/08 01:27:53;;;;;;;;;;;18.30;86.60;;;;;;6188522;23;19926;-98
2022/07/08 01:30:31;;;;;;;;;;;18.20;86.20;;;;;;6213617;23;19949;-96
2022/07/08 01:33:09;;;;;;;;;;;18.00;86.30;;;;;;6214171;23;19925;-96
2022/07/08 01:35:45;;;;;;;;;;;18.00;86.60;;;;;;6187036;23;19950;-96
2022/07/08 01:38:21;;;;;;;;;;;18.00;86.70;;;;;;6187918;23;19958;-96
2022/07/08 01:40:52;;;;;;;;;;;18.00;87.00;;;;;;6211893;23;19957;-96
2022/07/08 01:43:25;;;;;;;;;;;18.00;87.50;;;;;;6187497;23;19981;-96
2022/07/08 01:46:04;;;;;;;;;;;18.10;87.40;;;;;;6214195;23;19934;-97
2022/07/08 01:48:40;;;;;;;;;;;18.10;87.20;;;;;;6214185;23;19922;-96
2022/07/08 01:51:10;;;;;;;;;;;18.10;87.00;;;;;;6187620;23;19983;-96
2022/07/08 01:54:01;;;;;;;;;;;18.00;87.10;;;;;;6187633;23;19979;-96
2022/07/08 01:59:09;;;;;;;;;;;18.00;87.30;;;;;;6193283;23;19976;-96
2022/07/08 02:01:44;;;;;;;;;;;18.00;87.40;;;;;;6212880;23;19942;-96
2022/07/08 02:04:43;;;;;;;;;;;17.90;87.30;;;;;;6186551;23;19978;-96
2022/07/08 02:07:12;;;;;;;;;;;17.80;87.30;;;;;;6188005;23;19945;-96
2022/07/08 02:09:41;;;;;;;;;;;17.70;87.60;;;;;;6187014;23;19920;-96
2022/07/08 02:12:21;;;;;;;;;;;17.60;87.60;;;;;;6185163;23;19928;-96
2022/07/08 02:15:01;;;;;;;;;;;17.70;87.80;;;;;;6187751;23;19929;-96
2022/07/08 02:17:29;;;;;;;;;;;17.80;87.70;;;;;;6187871;23;19941;-96
2022/07/08 02:20:19;;;;;;;;;;;17.80;87.50;;;;;;6212513;23;19967;-96
2022/07/08 02:22:48;;;;;;;;;;;17.70;87.50;;;;;;6187671;23;19929;-96
2022/07/08 02:25:35;;;;;;;;;;;;;;;;;;;;;
2022/07/08 02:28:06;;;;;;;;;;;17.60;88.00;;;;;;6213408;23;19923;-96
2022/07/08 02:30:37;;;;;;;;;;;17.60;88.20;;;;;;6187363;23;19955;-96
2022/07/08 02:33:07;;;;;;;;;;;17.50;88.50;;;;;;6187502;23;19919;-96
2022/07/08 02:35:42;;;;;;;;;;;17.50;88.80;;;;;;6211661;23;19972;-96
2022/07/08 03:10:50;;;;;;;;;;;17.00;88.20;;;;;;6199835;22;19983;-96
2022/07/08 03:13:17;;;;;;;;;;;16.90;87.90;;;;;;6187366;23;19961;-96
2022/07/08 03:16:00;;;;;;;;;;;16.70;88.00;;;;;;6212353;23;19983;-96
2022/07/08 03:18:38;;;;;;;;;;;16.70;88.50;;;;;;6186394;23;19982;-96
2022/07/08 03:21:07;;;;;;;;;;;16.80;88.60;;;;;;6187064;23;19923;-96
2022/07/08 03:23:38;;;;;;;;;;;16.80;88.80;;;;;;6189432;23;19925;-96
2022/07/08 03:26:13;;;;;;;;;;;16.70;89.30;;;;;;6209312;23;19932;-96
2022/07/08 03:29:03;;;;;;;;;;;16.70;90.10;;;;;;6210045;23;19920;-96
2022/07/08 03:31:39;;;;;;;;;;;16.90;90.30;;;;;;6189050;23;19945;-96
2022/07/08 03:34:06;;;;;;;;;;;16.90;90.00;;;;;;6188180;23;19927;-96
2022/07/08 03:36:37;;;;;;;;;;;16.90;90.20;;;;;;6189283;23;19922;-96
2022/07/08 03:39:07;;;;;;;;;;;17.00;90.10;;;;;;6213127;23;19970;-96
2022/07/08 03:41:40;;;;;;;;;;;16.90;89.40;;;;;;6214217;23;19938;-96
2022/07/08 03:44:10;;;;;;;;;;;16.80;88.90;;;;;;6188795;23;19945;-96
2022/07/08 03:46:56;;;;;;;;;;;16.80;88.80;;;;;;6215190;23;19937;-96
2022/07/08 03:49:24;;;;;;;;;;;16.80;89.10;;;;;;6189222;23;19925;-96
2022/07/08 03:51:54;;;;;;;;;;;16.80;89.00;;;;;;6188298;23;19926;-96
2022/07/08 03:54:50;;;;;;;;;;;16.90;88.80;;;;;;6213019;23;19931;-96
2022/07/08 03:57:20;;;;;;;;;;;16.90;88.80;;;;;;6189121;23;19943;-96
2022/07/08 03:59:52;;;;;;;;;;;17.00;89.00;;;;;;6210686;23;19956;-96
2022/07/08 04:02:23;;;;;;;;;;;16.90;88.70;;;;;;6189073;23;19947;-96
2022/07/08 04:05:14;;;;;;;;;;;16.90;88.60;;;;;;6212068;23;19969;-96
2022/07/08 04:07:51;;;;;;;;;;;16.90;88.60;;;;;;6213111;23;19928;-96
2022/07/08 04:10:25;;;;;;;;;;;17.00;88.20;;;;;;6185872;23;19947;-96
2022/07/08 04:12:57;;;;;;;;;;;17.00;87.90;;;;;;6183081;23;19964;-96
2022/07/08 04:15:45;;;;;;;;;;;17.10;88.00;;;;;;6184360;23;19935;-96
2022/07/08 04:18:13;;;;;;;;;;;17.00;87.90;;;;;;6184182;23;19968;-96
2022/07/08 04:20:42;;;;;;;;;;;17.10;88.50;;;;;;6171398;23;19948;-97
2022/07/08 04:23:14;;;;;;;;;;;17.30;88.50;;;;;;6159473;23;19961;-96
2022/07/08 04:26:00;;;;;;;;;;;17.30;87.90;;;;;;6185110;23;19931;-96
2022/07/08 04:28:27;;;;;;;;;;;17.30;87.80;;;;;;6162105;23;19975;-96
2022/07/08 04:30:58;;;;;;;;;;;17.30;87.70;;;;;;6182281;23;19964;-96
2022/07/08 04:33:36;;;;;;;;;;;17.20;87.70;;;;;;6184833;23;20000;-96
2022/07/08 04:36:03;;;;;;;;;;;17.20;87.90;;;;;;6182195;23;19927;-96
2022/07/08 04:38:35;;;;;;;;;;;17.10;88.90;;;;;;6183608;23;19968;-96
2022/07/08 04:41:27;;;;;;;;;;;17.10;89.30;;;;;;6184572;23;19963;-96
2022/07/08 04:44:13;;;;;;;;;;;17.20;89.40;;;;;;6183758;23;19959;-96
2022/07/08 04:46:46;;;;;;;;;;;17.30;89.70;;;;;;6184853;23;19945;-96
2022/07/08 04:51:55;;;;;;;;;;;17.40;90.00;;;;;;6175303;23;19967;-96
2022/07/08 04:54:23;;;;;;;;;;;17.50;90.10;;;;;;6160499;23;19975;-96
2022/07/08 04:56:54;;;;;;;;;;;17.50;90.60;;;;;;6184803;23;19963;-96
2022/07/08 05:09:45;;;;;;;;;;;17.80;90.60;;;;;;6211746;23;19985;-96
2022/07/08 05:14:55;;;;;;;;;;;18.20;89.70;;;;;;6211594;23;19975;-96
2022/07/08 05:37:27;;;;;;;;;;;18.90;86.70;;;;;;6233878;22;19998;31
2022/07/08 05:45:48;;;;;;;;;;;19.10;85.90;;;;;;6230436;22;19964;-96
2022/07/08 05:48:23;;;;;;;;;;;19.20;85.80;;;;;;6226342;23;19997;-96
2022/07/08 06:14:33;;;;;;;;;;;20.00;81.90;;;;;;6229694;22;20067;-96
2022/07/08 06:17:04;;;;;;;;;;;20.20;81.60;;;;;;6223544;23;19976;-96
2022/07/08 06:19:30;;;;;;;;;;;20.30;81.90;;;;;;6223715;23;19922;-96
2022/07/08 06:21:59;;;;;;;;;;;20.30;82.00;;;;;;6224489;23;20003;-97
2022/07/08 06:24:26;;;;;;;;;;;20.40;81.40;;;;;;6220218;23;19938;-96
2022/07/08 06:26:52;;;;;;;;;;;20.40;80.10;;;;;;6218338;23;19931;-96
2022/07/08 06:29:19;;;;;;;;;;;20.60;79.80;;;;;;6241979;23;20342;-96
2022/07/08 06:31:52;;;;;;;;;;;20.80;79.40;;;;;;6215831;23;19991;-96
2022/07/08 06:34:21;;;;;;;;;;;20.90;80.00;;;;;;6216233;23;19950;-96
2022/07/08 06:36:59;;;;;;;;;;;21.00;79.90;;;;;;6242951;23;20011;-97
2022/07/08 06:39:41;;;;;;;;;;;21.10;79.10;;;;;;6242400;23;19939;-96
2022/07/08 06:42:12;;;;;;;;;;;21.20;79.10;;;;;;6242583;23;19934;-96
2022/07/08 06:44:40;;;;;;;;;;;21.30;79.10;;;;;;6216537;23;19929;-96
2022/07/08 06:47:07;;;;;;;;;;;21.30;78.80;;;;;;6216734;23;19943;-96
2022/07/08 06:49:38;;;;;;;;;;;21.30;77.70;;;;;;6215321;23;19944;-96
2022/07/08 06:52:21;;;;;;;;;;;21.30;76.70;;;;;;6243171;23;19941;-96
2022/07/08 06:54:50;;;;;;;;;;;21.40;76.60;;;;;;6216678;23;19920;-96
2022/07/08 06:57:16;;;;;;;;;;;21.50;76.90;;;;;;6215434;23;19948;-96
2022/07/08 06:59:46;;;;;;;;;;;21.50;75.60;;;;;;6196927;22;19987;-96
2022/07/08 07:02:13;;;;;;;;;;;21.60;74.70;;;;;;6209598;23;19968;-96
2022/07/08 07:04:39;;;;;;;;;;;21.70;75.80;;;;;;6211575;23;19947;-96
2022/07/08 07:07:06;;;;;;;;;;;21.70;76.40;;;;;;6213714;23;20030;-96
2022/07/08 07:09:32;;;;;;;;;;;21.80;73.10;;;;;;6212372;23;19960;-96
2022/07/08 07:11:58;;;;;;;;;;;21.80;69.70;;;;;;6210842;23;19943;-96
2022/07/08 07:14:27;;;;;;;;;;;21.90;68.10;;;;;;6211128;23;19993;-96
2022/07/08 07:16:56;;;;;;;;;;;22.00;68.40;;;;;;6211528;23;19967;-96
2022/07/08 07:19:22;;;;;;;;;;;22.10;69.30;;;;;;6214572;23;19934;-96
2022/07/08 07:21:48;;;;;;;;;;;22.20;69.80;;;;;;6239691;23;19955;-97
2022/07/08 07:24:15;;;;;;;;;;;22.30;71.10;;;;;;6207573;23;20020;-96
2022/07/08 07:26:41;;;;;;;;;;;22.30;72.00;;;;;;6240022;23;19934;-96
2022/07/08 07:29:08;;;;;;;;;;;22.40;70.90;;;;;;6206462;22;19955;-97
2022/07/08 07:31:34;;;;;;;;;;;22.50;70.50;;;;;;6211583;23;19977;-96
2022/07/08 07:34:01;;;;;;;;;;;22.50;70.90;;;;;;6235614;23;19941;-96
2022/07/08 07:36:32;;;;;;;;;;;22.60;71.90;;;;;;6240045;23;19937;-96
2022/07/08 07:39:02;;;;;;;;;;;22.80;70.40;;;;;;6190337;23;19941;-96
2022/07/08 07:41:35;;;;;;;;;;;22.80;70.10;;;;;;6188763;23;19941;-96
2022/07/08 07:44:04;;;;;;;;;;;22.90;69.40;;;;;;6181160;23;19942;-96
2022/07/08 07:46:30;;;;;;;;;;;23.00;68.20;;;;;;6183316;23;19957;-96
2022/07/08 07:48:59;;;;;;;;;;;23.00;68.40;;;;;;6181770;23;19926;-96
2022/07/08 07:51:24;;;;;;;;;;;23.00;66.70;;;;;;6179071;23;20390;-96
2022/07/08 07:53:57;;;;;;;;;;;23.00;67.50;;;;;;6185482;23;19926;-96
2022/07/08 07:56:31;;;;;;;;;;;23.00;66.60;;;;;;6210578;23;20008;-96
2022/07/08 08:01:34;;;;;;;;;;;23.20;67.90;;;;;;6219437;22;20971;-96
2022/07/08 08:04:04;;;;;;;;;;;23.30;68.00;;;;;;6214443;23;19946;-96
2022/07/08 08:06:34;;;;;;;;;;;23.30;67.80;;;;;;6240724;23;19932;-96
2022/07/08 08:09:04;;;;;;;;;;;23.40;67.40;;;;;;6215574;23;19962;-96
2022/07/08 08:11:36;;;;;;;;;;;23.50;65.70;;;;;;6212912;23;19943;-96
2022/07/08 08:14:02;;;;;;;;;;;23.50;64.80;;;;;;6209948;23;19969;-96
2022/07/08 08:16:28;;;;;;;;;;;23.60;60.10;;;;;;6238255;23;20284;-96
2022/07/08 08:18:54;;;;;;;;;;;23.70;62.50;;;;;;6212472;23;19938;-96
2022/07/08 08:21:20;;;;;;;;;;;23.80;62.90;;;;;;6208160;23;19943;-96
2022/07/08 08:23:46;;;;;;;;;;;23.80;62.20;;;;;;6231999;23;19948;-96
2022/07/08 08:26:12;;;;;;;;;;;23.90;61.60;;;;;;6210990;23;19923;-96
2022/07/08 08:28:40;;;;;;;;;;;24.00;61.10;;;;;;6211693;23;19942;-96
2022/07/08 08:31:09;;;;;;;;;;;24.10;59.70;;;;;;6213698;23;19943;-96
2022/07/08 08:33:37;;;;;;;;;;;24.00;59.50;;;;;;6241577;23;19978;-96
2022/07/08 08:36:08;;;;;;;;;;;24.10;60.40;;;;;;6243109;23;19942;-96
2022/07/08 08:38:36;;;;;;;;;;;24.20;60.70;;;;;;6216756;23;19952;-96
2022/07/08 08:41:03;;;;;;;;;;;24.20;60.30;;;;;;6215999;23;19935;-96
2022/07/08 08:43:34;;;;;;;;;;;24.30;60.10;;;;;;6212230;23;20001;-96
2022/07/08 08:46:04;;;;;;;;;;;24.30;59.00;;;;;;6241350;23;20410;-96
2022/07/08 09:10:16;;;;;;;;;;;24.90;57.90;;;;;;6131024;22;2572236;-96
2022/07/08 09:13:00;;;;;;;;;;;25.00;60.30;;;;;;6226523;23;19974;-96
2022/07/08 09:15:29;;;;;;;;;;;25.10;57.50;;;;;;6225739;23;20239;-96
2022/07/08 09:17:55;;;;;;;;;;;25.20;54.50;;;;;;6197969;23;20261;-96
2022/07/08 09:26:29;;;;;;;;;;;25.30;52.80;;;;;;6233736;22;19992;-96
2022/07/08 09:31:33;;;;;;;;;;;25.30;52.80;;;;;;6199038;22;19970;-96
2022/07/08 09:34:05;;;;;;;;;;;25.50;54.20;;;;;;6218635;23;19972;-96
2022/07/08 09:36:43;;;;;;;;;;;25.60;53.20;;;;;;6216623;23;20383;-96
2022/07/08 09:39:15;;;;;;;;;;;25.60;52.20;;;;;;6242722;23;20163;-96
2022/07/08 09:41:47;;;;;;;;;;;25.70;51.60;;;;;;6218826;23;19938;-96
2022/07/08 09:44:15;;;;;;;;;;;25.70;52.10;;;;;;6243584;23;19956;-96
2022/07/08 09:46:42;;;;;;;;;;;25.80;55.80;;;;;;6217080;23;19966;-96
2022/07/08 09:49:13;;;;;;;;;;;25.80;52.60;;;;;;6222530;23;19952;-96
2022/07/08 09:51:46;;;;;;;;;;;25.80;52.70;;;;;;6199405;23;19987;-96
2022/07/08 09:57:28;;;;;;;;;;;25.90;53.10;;;;;;6197638;22;19983;-96
2022/07/08 10:00:13;;;;;;;;;;;26.00;52.00;;;;;;6241527;23;19949;-96
2022/07/08 10:02:41;;;;;;;;;;;26.20;49.80;;;;;;6217988;23;19950;-96
2022/07/08 10:05:14;;;;;;;;;;;26.10;51.20;;;;;;6242858;23;19945;-96
2022/07/08 10:07:41;;;;;;;;;;;26.20;52.60;;;;;;6213413;23;19960;-96
2022/07/08 10:10:12;;;;;;;;;;;26.20;50.50;;;;;;6213779;23;19930;-96
2022/07/08 10:12:42;;;;;;;;;;;26.30;50.10;;;;;;6215268;23;20271;-96
2022/07/08 10:15:08;;;;;;;;;;;26.30;50.10;;;;;;6209512;23;19953;-96
2022/07/08 10:17:39;;;;;;;;;;;26.30;49.40;;;;;;6235880;23;19984;-96
2022/07/08 10:20:10;;;;;;;;;;;26.30;50.40;;;;;;6212708;23;19945;-96
2022/07/08 10:22:37;;;;;;;;;;;26.40;50.10;;;;;;6231929;22;20008;-96
2022/07/08 10:25:03;;;;;;;;;;;26.30;48.50;;;;;;6191461;23;20345;-96
2022/07/08 10:27:28;;;;;;;;;;;26.40;50.50;;;;;;6218504;23;20008;-96
2022/07/08 10:30:11;;;;;;;;;;;26.50;51.70;;;;;;6218150;23;19931;-96
2022/07/08 10:32:37;;;;;;;;;;;26.60;54.10;;;;;;6218904;23;19943;-96
2022/07/08 10:35:06;;;;;;;;;;;26.60;49.50;;;;;;6218489;23;19941;-96
2022/07/08 10:37:50;;;;;;;;;;;26.60;50.20;;;;;;6218858;23;19942;-96
2022/07/08 10:40:34;;;;;;;;;;;26.60;52.90;;;;;;6217741;23;19990;-96
2022/07/08 10:43:17;;;;;;;;;;;26.80;48.10;;;;;;6217877;23;20277;-96
2022/07/08 10:46:01;;;;;;;;;;;26.80;49.20;;;;;;6218196;23;19941;-96
2022/07/08 10:48:27;;;;;;;;;;;26.90;45.30;;;;;;6217356;23;19966;-96
2022/07/08 10:50:53;;;;;;;;;;;26.90;45.60;;;;;;6190747;23;19985;-96
2022/07/08 10:53:18;;;;;;;;;;;26.90;46.40;;;;;;6218084;23;19945;-96
2022/07/08 10:55:46;;;;;;;;;;;27.00;48.70;;;;;;6217462;23;19939;-96
2022/07/08 10:58:12;;;;;;;;;;;27.00;49.10;;;;;;6219182;23;19935;-96
2022/07/08 11:00:39;;;;;;;;;;;27.00;46.20;;;;;;6217163;23;19930;-96
2022/07/08 11:03:08;;;;;;;;;;;27.00;45.90;;;;;;6217989;23;19937;-96
2022/07/08 11:05:38;;;;;;;;;;;27.10;48.10;;;;;;6217281;23;19936;-96
2022/07/08 11:08:18;;;;;;;;;;;27.20;48.70;;;;;;6190556;23;19963;-96
2022/07/08 11:10:44;;;;;;;;;;;27.40;47.30;;;;;;6217482;23;19931;-96
2022/07/08 11:13:10;;;;;;;;;;;27.50;46.40;;;;;;6217661;23;19934;-96
2022/07/08 11:15:36;;;;;;;;;;;27.50;48.00;;;;;;6191448;23;20383;-96
2022/07/08 11:18:02;;;;;;;;;;;27.70;47.40;;;;;;6219758;23;19932;-96
2022/07/08 11:20:30;;;;;;;;;;;27.70;46.80;;;;;;6194228;23;20011;-96
2022/07/08 11:22:55;;;;;;;;;;;27.90;48.70;;;;;;6222338;23;19974;-96
2022/07/08 11:25:21;;;;;;;;;;;28.00;46.60;;;;;;6222938;23;19938;-96
2022/07/08 11:27:46;;;;;;;;;;;28.00;47.20;;;;;;6221921;23;19964;-96
2022/07/08 11:30:13;;;;;;;;;;;27.80;46.10;;;;;;6217307;23;19937;-96
2022/07/08 11:32:39;;;;;;;;;;;27.70;43.60;;;;;;6190153;23;19949;-96
2022/07/08 11:35:05;;;;;;;;;;;27.80;45.50;;;;;;6216538;23;20016;-96
2022/07/08 11:37:33;;;;;;;;;;;28.10;47.50;;;;;;6216277;23;19964;-96
2022/07/08 11:39:59;;;;;;;;;;;28.30;44.40;;;;;;6217040;23;19934;-96
2022/07/08 11:42:25;;;;;;;;;;;28.40;45.50;;;;;;6189935;23;19957;-96
2022/07/08 11:44:51;;;;;;;;;;;28.70;42.30;;;;;;6217099;23;19938;-96
2022/07/08 11:47:20;;;;;;;;;;;28.90;43.40;;;;;;6190050;23;20309;-96
2022/07/08 11:49:47;;;;;;;;;;;28.80;44.30;;;;;;6217399;23;19938;-96
2022/07/08 11:52:17;;;;;;;;;;;28.60;44.40;;;;;;6216779;23;20404;-96
2022/07/08 11:54:46;;;;;;;;;;;28.30;44.40;;;;;;6190126;23;19935;-96
2022/07/08 11:57:14;;;;;;;;;;;28.50;43.50;;;;;;6219104;23;19933;-96
2022/07/08 11:59:42;;;;;;;;;;;28.70;43.40;;;;;;6218485;23;19957;-96
2022/07/08 12:02:08;;;;;;;;;;;28.90;43.20;;;;;;6218242;23;19943;-96
2022/07/08 12:04:34;;;;;;;;;;;29.20;42.40;;;;;;6217593;23;19958;-96
2022/07/08 12:07:01;;;;;;;;;;;29.90;43.20;;;;;;6217590;23;20013;-96
2022/07/08 12:09:27;;;;;;;;;;;30.20;41.80;;;;;;6217321;23;19965;-96
2022/07/08 12:11:54;;;;;;;;;;;30.10;40.30;;;;;;6222682;23;19935;-96
2022/07/08 12:14:20;;;;;;;;;;;30.10;41.90;;;;;;6190425;23;19947;-96
2022/07/08 12:16:46;;;;;;;;;;;29.80;40.40;;;;;;6218046;23;20267;-96
2022/07/08 12:19:28;;;;;;;;;;;30.00;40.10;;;;;;6215277;23;19938;-96
2022/07/08 12:21:54;;;;;;;;;;;30.60;39.70;;;;;;6215843;23;19941;-96
2022/07/08 12:45:14;;;;;;;;;;;32.90;35.30;;;;;;6229518;22;20030;-96
2022/07/08 12:50:41;;;;;;;;;;;33.50;34.30;;;;;;6224308;22;19993;31
2022/07/08 12:53:09;;;;;;;;;;;33.60;33.80;;;;;;6214680;23;19967;-96
2022/07/08 13:31:02;;;;;;;;;;;39.20;29.80;;;;;;6231014;22;19987;-96
2022/07/08 13:33:29;;;;;;;;;;;38.40;29.00;;;;;;6209733;23;19922;-96
2022/07/08 13:35:55;;;;;;;;;;;37.30;28.00;;;;;;6208094;23;19943;-96
2022/07/08 13:38:22;;;;;;;;;;;37.20;29.80;;;;;;6239851;23;19955;-96
2022/07/08 13:40:51;;;;;;;;;;;37.80;28.00;;;;;;6240966;23;20004;-96
2022/07/08 13:43:17;;;;;;;;;;;37.60;30.00;;;;;;6210185;22;19993;-96
2022/07/08 13:45:43;;;;;;;;;;;38.10;27.10;;;;;;6201052;23;20064;-96
2022/07/08 13:48:10;;;;;;;;;;;37.60;29.00;;;;;;6231271;23;19939;-96
2022/07/08 13:50:36;;;;;;;;;;;37.40;30.40;;;;;;6231344;23;19967;-96
2022/07/08 13:53:05;;;;;;;;;;;37.00;29.10;;;;;;6232974;23;19948;-96
2022/07/08 13:55:34;;;;;;;;;;;37.60;28.70;;;;;;6213083;23;19933;-96
2022/07/08 13:57:59;;;;;;;;;;;38.10;29.50;;;;;;6236763;23;20023;-96
2022/07/08 14:00:26;;;;;;;;;;;39.00;27.20;;;;;;6212607;23;19940;-96
2022/07/08 14:02:53;;;;;;;;;;;40.10;24.90;;;;;;6211235;23;19947;-96
2022/07/08 14:05:20;;;;;;;;;;;41.00;24.60;;;;;;6238291;23;19943;-96
2022/07/08 14:07:46;;;;;;;;;;;40.40;24.50;;;;;;6237609;23;19954;-96
2022/07/08 14:10:12;;;;;;;;;;;38.70;26.50;;;;;;6212909;23;20013;-96
2022/07/08 14:12:38;;;;;;;;;;;37.90;26.70;;;;;;6239687;23;19951;-96
2022/07/08 14:15:04;;;;;;;;;;;37.90;30.20;;;;;;6235449;23;20234;-96
2022/07/08 14:17:34;;;;;;;;;;;38.30;27.00;;;;;;6235884;23;19950;-96
2022/07/08 14:20:05;;;;;;;;;;;38.90;25.70;;;;;;6231781;23;19937;-96
2022/07/08 14:22:31;;;;;;;;;;;38.20;25.10;;;;;;6232406;23;19947;-97
2022/07/08 14:24:57;;;;;;;;;;;37.20;27.40;;;;;;6237115;23;19940;-96
2022/07/08 14:27:26;;;;;;;;;;;37.80;27.90;;;;;;6210538;23;19943;-96
2022/07/08 14:29:53;;;;;;;;;;;38.60;28.90;;;;;;6233319;22;20006;-96
2022/07/08 14:32:23;;;;;;;;;;;39.00;25.70;;;;;;6210007;23;19981;-96
2022/07/08 14:34:54;;;;;;;;;;;38.90;26.20;;;;;;6214555;23;19922;-96
2022/07/08 14:37:22;;;;;;;;;;;38.90;25.00;;;;;;6214931;23;20017;-96
2022/07/08 14:39:54;;;;;;;;;;;39.10;25.30;;;;;;6215285;23;19927;-96
2022/07/08 14:42:21;;;;;;;;;;;38.70;26.50;;;;;;6242090;23;19998;-96
2022/07/08 14:44:52;;;;;;;;;;;39.10;26.10;;;;;;6241946;23;20001;-96
2022/07/08 14:47:18;;;;;;;;;;;39.10;25.00;;;;;;6215278;23;19997;-96
2022/07/08 14:49:53;;;;;;;;;;;39.10;27.00;;;;;;6216776;23;19951;-97
2022/07/08 14:52:20;;;;;;;;;;;39.60;24.20;;;;;;6216845;23;19942;-96
2022/07/08 14:54:47;;;;;;;;;;;39.90;24.00;;;;;;6217725;23;19928;-96
2022/07/08 14:57:13;;;;;;;;;;;40.30;24.50;;;;;;6208553;23;19982;-96
2022/07/08 14:59:39;;;;;;;;;;;40.10;25.10;;;;;;6225154;23;20268;-96
2022/07/08 15:02:04;;;;;;;;;;;41.20;23.70;;;;;;6195308;23;19946;-96
2022/07/08 15:04:31;;;;;;;;;;;41.60;24.00;;;;;;6222761;23;19939;-96
2022/07/08 15:06:56;;;;;;;;;;;41.70;22.70;;;;;;6191830;23;19936;-96
2022/07/08 15:09:22;;;;;;;;;;;41.20;23.40;;;;;;6217727;23;19944;-96
2022/07/08 15:11:49;;;;;;;;;;;40.50;24.20;;;;;;6218080;23;19966;-96
2022/07/08 15:14:14;;;;;;;;;;;39.80;25.10;;;;;;6191032;23;19936;-96
2022/07/08 15:16:41;;;;;;;;;;;39.80;26.10;;;;;;6217436;23;19933;-96
2022/07/08 15:21:35;;;;;;;;;;;37.40;27.00;;;;;;6217692;23;19960;-96
2022/07/08 15:24:01;;;;;;;;;;;37.60;28.00;;;;;;6220349;23;19934;-96
2022/07/08 15:26:26;;;;;;;;;;;38.10;26.00;;;;;;6191580;23;19956;-96
2022/07/08 15:28:52;;;;;;;;;;;38.50;25.80;;;;;;6216706;23;19956;-96
2022/07/08 15:31:17;;;;;;;;;;;39.20;25.20;;;;;;6216842;23;19933;-96
2022/07/08 15:33:43;;;;;;;;;;;39.10;25.70;;;;;;6217064;23;19931;-96
2022/07/08 15:38:50;;;;;;;;;;;39.60;25.90;;;;;;6242101;23;19975;-96
2022/07/08 15:41:27;;;;;;;;;;;39.20;26.10;;;;;;6243992;23;19996;-96
2022/07/08 15:44:00;;;;;;;;;;;38.90;26.90;;;;;;6218309;23;19974;-97
2022/07/08 15:46:33;;;;;;;;;;;38.80;26.40;;;;;;6209582;23;19944;-97
2022/07/08 15:49:02;;;;;;;;;;;38.70;27.60;;;;;;6215901;23;19933;-96
2022/07/08 15:51:38;;;;;;;;;;;38.20;28.40;;;;;;6215545;23;19938;-96
2022/07/08 15:54:04;;;;;;;;;;;37.50;27.50;;;;;;6212495;23;20385;-96
2022/07/08 15:56:30;;;;;;;;;;;37.30;27.60;;;;;;6233764;23;19934;-96
2022/07/08 15:58:56;;;;;;;;;;;36.70;28.70;;;;;;6205601;23;19961;-96
2022/07/08 16:01:21;;;;;;;;;;;36.00;30.70;;;;;;6205281;23;19980;-96
2022/07/08 16:03:50;;;;;;;;;;;35.30;30.80;;;;;;6223090;22;20000;-96
2022/07/08 16:06:16;;;;;;;;;;;35.00;32.50;;;;;;6229100;23;19934;-96
2022/07/08 16:08:42;;;;;;;;;;;34.70;31.50;;;;;;6229729;23;19954;-96
2022/07/08 16:11:07;;;;;;;;;;;34.40;31.80;;;;;;6200695;23;20249;-96
2022/07/08 16:13:33;;;;;;;;;;;34.10;32.80;;;;;;6224644;23;19927;-96
2022/07/08 16:16:01;;;;;;;;;;;33.80;33.50;;;;;;6200137;23;20029;-96
2022/07/08 16:18:27;;;;;;;;;;;33.70;33.90;;;;;;6199201;23;19990;-96
2022/07/08 16:20:52;;;;;;;;;;;33.60;33.60;;;;;;6199021;23;19967;-96
2022/07/08 16:23:18;;;;;;;;;;;33.40;33.60;;;;;;6226958;23;19931;-96
2022/07/08 16:25:44;;;;;;;;;;;33.20;33.80;;;;;;6228273;23;20099;-96
2022/07/08 16:28:09;;;;;;;;;;;33.20;32.70;;;;;;6225303;23;19943;-96
2022/07/08 16:30:35;;;;;;;;;;;33.10;34.40;;;;;;6198273;23;19945;-96
2022/07/08 16:33:01;;;;;;;;;;;33.20;33.40;;;;;;6228574;23;20009;-96
2022/07/08 16:35:27;;;;;;;;;;;33.10;32.80;;;;;;6227425;23;19940;-96
2022/07/08 16:37:53;;;;;;;;;;;32.80;34.30;;;;;;6224005;23;19976;-95
2022/07/08 16:40:19;;;;;;;;;;;32.70;34.40;;;;;;6216487;23;19938;-95
2022/07/08 16:42:44;;;;;;;;;;;32.70;33.00;;;;;;6216409;23;20372;-96
2022/07/08 16:45:10;;;;;;;;;;;32.70;33.90;;;;;;6216604;23;20244;-95
2022/07/08 16:47:35;;;;;;;;;;;32.60;33.60;;;;;;6190800;23;20375;-95
2022/07/08 16:50:04;;;;;;;;;;;32.60;34.10;;;;;;6221794;23;19937;-96
2022/07/08 16:52:30;;;;;;;;;;;32.30;34.00;;;;;;6221432;23;19959;-96
2022/07/08 16:54:56;;;;;;;;;;;32.20;35.50;;;;;;6221269;23;19961;-96
2022/07/08 16:57:22;;;;;;;;;;;32.20;35.50;;;;;;6220808;23;20380;-96
2022/07/08 16:59:47;;;;;;;;;;;32.00;35.00;;;;;;6223326;23;19936;-96
2022/07/08 17:02:13;;;;;;;;;;;31.80;34.50;;;;;;6195967;23;19949;-96
2022/07/08 17:04:39;;;;;;;;;;;32.00;34.90;;;;;;6193853;23;19989;-96
2022/07/08 17:07:05;;;;;;;;;;;32.00;33.70;;;;;;6217811;23;19939;-96
2022/07/08 17:09:30;;;;;;;;;;;31.80;35.00;;;;;;6219110;23;19953;-96
2022/07/08 17:11:56;;;;;;;;;;;31.70;34.90;;;;;;6221129;23;20008;-96
2022/07/08 17:14:23;;;;;;;;;;;31.60;35.00;;;;;;6220480;23;19940;-96
2022/07/08 17:16:49;;;;;;;;;;;31.50;34.80;;;;;;6219844;23;20053;-96
2022/07/08 17:19:15;;;;;;;;;;;31.40;34.80;;;;;;6194524;23;19944;-96
2022/07/08 17:21:41;;;;;;;;;;;31.30;34.20;;;;;;6220587;23;19992;-96
2022/07/08 17:24:06;;;;;;;;;;;31.20;34.10;;;;;;6221112;23;19938;-96
2022/07/08 17:26:32;;;;;;;;;;;31.20;34.80;;;;;;6194187;23;19945;-96
2022/07/08 17:29:47;;;;;;;;;;;31.10;36.10;;;;;;6219852;23;19930;-96
2022/07/08 17:31:43;;;;;;;;;;;30.80;35.30;;;;;;6219848;23;20369;-96
2022/07/08 17:34:09;;;;;;;;;;;30.70;37.90;;;;;;6219916;23;19945;-96
2022/07/08 17:36:34;;;;;;;;;;;30.50;37.40;;;;;;6219693;23;19939;-96
2022/07/08 17:39:00;;;;;;;;;;;30.40;35.10;;;;;;6218915;23;19967;-96
2022/07/08 17:41:25;;;;;;;;;;;30.20;36.20;;;;;;6219726;23;20266;-96
2022/07/08 17:43:51;;;;;;;;;;;30.00;35.20;;;;;;6219138;23;19956;-96
2022/07/08 17:46:16;;;;;;;;;;;29.90;37.40;;;;;;6192859;23;20002;-96
2022/07/08 17:48:42;;;;;;;;;;;29.70;39.20;;;;;;6219070;23;19932;-96
2022/07/08 17:51:07;;;;;;;;;;;29.60;37.40;;;;;;6219493;23;20265;-96
2022/07/08 17:53:33;;;;;;;;;;;29.30;38.30;;;;;;6219742;23;19973;-96
2022/07/08 17:55:58;;;;;;;;;;;29.10;39.30;;;;;;6219650;23;19937;-96